Al Khuwair — C6VM6 — position and weather

sailwx.info

Track history (hours):
 
Tides and Currents Weather Stations Pressure Air Temp Water Temp Dewpoint Dewpoint Depression Visibility Wind Speed Wind Dir Waves Ship Positions

Al Khuwair

Last reported at 2016-Jul-25 02:33 UTC. Time now 2016-Jul-30 22:43 UTC.
Position N 36°20' E 014°41'.

Length 315 m; draft 9.6 m.

Type: Ship (hazmat cat A). MMSI: 311000140.

Date/timePositionNaut miles runAvg speedWind from/ knotsBaromVisibWave heightAir tempDewpointWater temp
2016-Jul-25 02:33N 36°20' E 014°41'4620.0
2016-Jul-25 00:14N 36°33' E 013°46'1419.7
2016-Jul-24 23:31N 36°36' E 013°29'1919.8
2016-Jul-24 22:33N 36°43' E 013°07'  
2016-Jul-20 12:33N 49°47' W 003°24'1615.9
2016-Jul-20 11:33N 49°56' W 003°03'10513.1
2016-Jul-20 03:33N 50°25' W 000°26'1616.5
2016-Jul-20 02:33N 50°30' W 000°01'5014.6
2016-Jul-19 23:09N 50°50' E 001°10'712.5
2016-Jul-19 22:33N 50°55' E 001°19'1313.6
2016-Jul-19 21:33N 51°05' E 001°33'1615.9
2016-Jul-19 20:33N 51°18' E 001°49'1717.1
2016-Jul-19 19:33N 51°32' E 002°03'14214.2
2016-Jul-19 09:33N 53°41' E 003°40'34513.0
2016-Jul-18 07:04N 57°39' E 011°02'612.2
2016-Jul-18 06:33N 57°35' E 011°11'1212.1
2016-Jul-18 05:33N 57°27' E 011°27'1212.1
2016-Jul-18 04:33N 57°15' E 011°35'1812.0
2016-Jul-18 03:04N 56°59' E 011°46'612.1
2016-Jul-18 02:32N 56°53' E 011°49'1110.8
2016-Jul-18 01:32N 56°42' E 011°51'10111.3
2016-Jul-17 16:33N 55°05' E 010°59'1211.6
2016-Jul-17 15:33N 54°54' E 010°51'1211.8
2016-Jul-17 14:33N 54°42' E 010°47'1111.5
2016-Jul-17 13:33N 54°36' E 011°03'1212.2
2016-Jul-17 12:33N 54°32' E 011°23'1312.6
2016-Jul-17 11:33N 54°27' E 011°43'1211.9
2016-Jul-17 10:33N 54°26' E 012°03'83 7.5
2016-Jul-16 23:26N 53°57' E 014°16'2 0.1
2016-Jul-15 17:07N 53°55' E 014°18'0 0.3
2016-Jul-15 16:33N 53°55' E 014°18'3 2.5
2016-Jul-15 15:33N 53°58' E 014°16'  
Track history (hours):
 
Tides and Currents Weather Stations Pressure Air Temp Water Temp Dewpoint Dewpoint Depression Visibility Wind Speed Wind Dir Waves Ship Positions

Al Khuwair

Last reported at 2016-Jul-25 02:33 UTC. Time now 2016-Jul-30 22:43 UTC.
Position N 36°20' E 014°41'.

Length 315 m; draft 9.6 m.

Type: Ship (hazmat cat A). MMSI: 311000140.

Date/timePositionNaut miles runAvg speedWind from/ knotsBaromVisibWave heightAir tempDewpointWater temp
2016-Jul-25 02:33N 36°20' E 014°41'4620.0
2016-Jul-25 00:14N 36°33' E 013°46'1419.7
2016-Jul-24 23:31N 36°36' E 013°29'1919.8
2016-Jul-24 22:33N 36°43' E 013°07'  
2016-Jul-20 12:33N 49°47' W 003°24'1615.9
2016-Jul-20 11:33N 49°56' W 003°03'10513.1
2016-Jul-20 03:33N 50°25' W 000°26'1616.5
2016-Jul-20 02:33N 50°30' W 000°01'5014.6
2016-Jul-19 23:09N 50°50' E 001°10'712.5
2016-Jul-19 22:33N 50°55' E 001°19'1313.6
2016-Jul-19 21:33N 51°05' E 001°33'1615.9
2016-Jul-19 20:33N 51°18' E 001°49'1717.1
2016-Jul-19 19:33N 51°32' E 002°03'14214.2
2016-Jul-19 09:33N 53°41' E 003°40'34513.0
2016-Jul-18 07:04N 57°39' E 011°02'612.2
2016-Jul-18 06:33N 57°35' E 011°11'1212.1
2016-Jul-18 05:33N 57°27' E 011°27'1212.1
2016-Jul-18 04:33N 57°15' E 011°35'1812.0
2016-Jul-18 03:04N 56°59' E 011°46'612.1
2016-Jul-18 02:32N 56°53' E 011°49'1110.8
2016-Jul-18 01:32N 56°42' E 011°51'10111.3
2016-Jul-17 16:33N 55°05' E 010°59'1211.6
2016-Jul-17 15:33N 54°54' E 010°51'1211.8
2016-Jul-17 14:33N 54°42' E 010°47'1111.5
2016-Jul-17 13:33N 54°36' E 011°03'1212.2
2016-Jul-17 12:33N 54°32' E 011°23'1312.6
2016-Jul-17 11:33N 54°27' E 011°43'1211.9
2016-Jul-17 10:33N 54°26' E 012°03'83 7.5
2016-Jul-16 23:26N 53°57' E 014°16'2 0.1
2016-Jul-15 17:07N 53°55' E 014°18'0 0.3
2016-Jul-15 16:33N 53°55' E 014°18'3 2.5
2016-Jul-15 15:33N 53°58' E 014°16'  

Dump ship's entire track history